Najaf, Iraq
Current Conditions -  °F | °C
As of 11:00 AM on Friday 24 Oct 2014 (Local Time) from ORNI Reporting Station
Clear Clear  
Wind Chill: 81°   Ceiling: Unl
Heat Index: 81°   Visibility: 5mi
Dew Point: 46°   Wind: 7mph
Humidity: 30%   Direction: 50°NE
Pressure: 30"   Gusts: NA
Location:  31.98°N, 44.32°E
Report Text: ORNI 240800Z 05006KT 8000 NSC 27/08 Q1016 NOSIG
Loading
Personal Weather Stations






























Interactive Weather Map New forecast layout! Learn more

10-Day Weather Forecast

Advertisements
Track Severe Weather on mobile